Time;durP1;ratioP1;P1;durP2;ratioP2;P2;SDS_P1;SDS_P2;PMS_P1;PMS_P2;Temp;Humidity;BMP_temperature;BMP_pressure;BME280_temperature;BME280_humidity;BME280_pressure;Samples;Min_cycle;Max_cycle;Signal;HPM_P1;HPM_P2
2021/06/21 00:00:56;;;;;;;20.42;15.77;;;;;;;;;;5072526;28;20044;-82
2021/06/21 00:03:22;;;;;;;20.92;15.75;;;;;;;;;;5071799;28;20389;-82
2021/06/21 00:05:49;;;;;;;18.63;14.25;;;;;;;;;;5071646;28;20051;-81
2021/06/21 00:08:15;;;;;;;18.45;14.05;;;;;;;;;;5065369;28;20104;-83
2021/06/21 00:10:42;;;;;;;22.02;14.75;;;;;;;;;;5069696;28;20056;-85
2021/06/21 00:13:08;;;;;;;17.73;14.25;;;;;;;;;;5072496;28;20090;-82
2021/06/21 00:15:35;;;;;;;20.98;15.13;;;;;;;;;;5071756;28;20048;-80
2021/06/21 00:18:01;;;;;;;23.33;15.15;;;;;;;;;;5071997;28;20047;-83
2021/06/21 00:20:27;;;;;;;23.83;15.43;;;;;;;;;;5071901;28;20048;-81
2021/06/21 00:22:54;;;;;;;20.17;15.57;;;;;;;;;;5069881;28;20056;-81
2021/06/21 00:25:21;;;;;;;23.58;15.23;;;;;;;;;;5058808;28;20083;-83
2021/06/21 00:27:48;;;;;;;28.00;15.30;;;;;;;;;;5072321;28;20117;-84
2021/06/21 00:30:16;;;;;;;19.42;15.25;;;;;;;;;;5071728;28;20404;-84
2021/06/21 00:32:43;;;;;;;20.88;15.43;;;;;;;;;;5067628;28;20496;-84
2021/06/21 00:35:10;;;;;;;20.73;14.55;;;;;;;;;;5058738;28;20037;-82
2021/06/21 00:37:36;;;;;;;20.48;15.15;;;;;;;;;;5055746;28;20048;-82
2021/06/21 00:40:04;;;;;;;18.17;15.20;;;;;;;;;;5072901;28;20535;-83
2021/06/21 00:42:30;;;;;;;24.00;14.68;;;;;;;;;;5071553;28;20040;-85
2021/06/21 00:44:57;;;;;;;22.92;15.57;;;;;;;;;;5071510;28;20412;-81
2021/06/21 00:47:23;;;;;;;23.10;16.00;;;;;;;;;;5071603;28;20045;-84
2021/06/21 00:49:49;;;;;;;22.33;15.98;;;;;;;;;;5055810;28;20036;-84
2021/06/21 00:52:17;;;;;;;24.15;16.65;;;;;;;;;;5072581;28;20041;-82
2021/06/21 00:54:45;;;;;;;23.42;16.95;;;;;;;;;;5060363;28;20520;-83
2021/06/21 00:57:11;;;;;;;22.30;15.38;;;;;;;;;;5066784;28;20044;-83
2021/06/21 00:59:38;;;;;;;24.00;16.25;;;;;;;;;;5071622;28;20048;-83
2021/06/21 01:02:04;;;;;;;21.92;15.60;;;;;;;;;;5071252;28;20049;-83
2021/06/21 01:04:30;;;;;;;21.25;15.25;;;;;;;;;;5071883;28;20048;-85
2021/06/21 01:06:57;;;;;;;20.35;15.65;;;;;;;;;;5069348;28;20053;-85
2021/06/21 01:09:24;;;;;;;21.33;15.43;;;;;;;;;;5061588;28;20084;-84
2021/06/21 01:11:50;;;;;;;23.52;16.40;;;;;;;;;;5068528;28;20051;-85
2021/06/21 01:14:21;;;;;;;20.13;16.30;;;;;;;;;;5071634;28;20058;-84
2021/06/21 01:17:00;;;;;;;21.80;16.42;;;;;;;;;;5053927;28;20041;-84
2021/06/21 01:19:41;;;;;;;23.70;17.63;;;;;;;;;;5068730;28;20044;-84
2021/06/21 01:22:08;;;;;;;21.48;17.42;;;;;;;;;;5072082;28;20597;-85
2021/06/21 01:24:53;;;;;;;25.50;16.95;;;;;;;;;;5060397;28;20069;-84
2021/06/21 01:27:25;;;;;;;24.65;17.00;;;;;;;;;;5059979;28;20103;-85
2021/06/21 01:30:09;;;;;;;20.83;16.75;;;;;;;;;;5063905;28;20071;-85
2021/06/21 01:32:44;;;;;;;27.02;18.33;;;;;;;;;;5071093;28;20484;-86
2021/06/21 01:35:10;;;;;;;;;;;;;;;;;;5071852;28;20070;-84
2021/06/21 01:37:37;;;;;;;22.35;16.27;;;;;;;;;;5074605;28;19951;-86
2021/06/21 01:40:03;;;;;;;20.10;16.33;;;;;;;;;;5062588;28;20060;-85
2021/06/21 01:42:30;;;;;;;21.52;17.50;;;;;;;;;;5072794;28;20090;-86
2021/06/21 01:45:03;;;;;;;22.42;17.00;;;;;;;;;;5074693;28;20052;-86
2021/06/21 01:47:31;;;;;;;27.63;19.33;;;;;;;;;;5074822;28;20071;-84
2021/06/21 01:49:58;;;;;;;23.45;18.38;;;;;;;;;;5074890;28;20492;-86
2021/06/21 01:52:25;;;;;;;26.52;18.95;;;;;;;;;;5057979;28;20087;-86
2021/06/21 01:54:53;;;;;;;31.80;19.55;;;;;;;;;;5069665;28;20538;-85
2021/06/21 01:57:22;;;;;;;26.83;19.17;;;;;;;;;;5074707;28;20075;-86
2021/06/21 01:59:50;;;;;;;26.55;18.30;;;;;;;;;;5074549;28;20044;-86
2021/06/21 02:02:17;;;;;;;24.90;18.23;;;;;;;;;;5074595;28;20411;-85
2021/06/21 02:04:43;;;;;;;28.58;19.45;;;;;;;;;;5074599;28;20071;-86
2021/06/21 02:07:11;;;;;;;25.42;19.48;;;;;;;;;;5075545;28;20064;-85
2021/06/21 02:09:37;;;;;;;26.33;18.67;;;;;;;;;;5073339;28;20488;-86
2021/06/21 02:12:04;;;;;;;27.55;19.15;;;;;;;;;;5068663;28;20121;-85
2021/06/21 02:14:31;;;;;;;23.63;18.40;;;;;;;;;;5073196;28;20044;-86
2021/06/21 02:16:59;;;;;;;25.75;18.65;;;;;;;;;;5059368;28;20053;-84
2021/06/21 02:19:26;;;;;;;26.08;18.38;;;;;;;;;;5074656;28;20045;-85
2021/06/21 02:21:53;;;;;;;22.42;18.08;;;;;;;;;;5074980;28;20074;-85
2021/06/21 02:24:19;;;;;;;27.02;19.05;;;;;;;;;;5074125;28;20073;-85
2021/06/21 02:26:47;;;;;;;25.42;18.13;;;;;;;;;;5074244;28;20045;-86
2021/06/21 02:29:15;;;;;;;32.15;20.27;;;;;;;;;;5074172;28;20054;-85
2021/06/21 02:31:41;;;;;;;27.95;19.75;;;;;;;;;;5074353;28;20079;-85
2021/06/21 02:34:07;;;;;;;26.58;19.60;;;;;;;;;;5060705;28;20095;-85
2021/06/21 02:36:34;;;;;;;25.80;18.73;;;;;;;;;;5061565;28;20053;-85
2021/06/21 02:39:00;;;;;;;25.83;19.73;;;;;;;;;;5062718;28;20045;-85
2021/06/21 02:41:27;;;;;;;26.40;18.10;;;;;;;;;;5062949;28;20060;-85
2021/06/21 02:43:53;;;;;;;24.05;17.90;;;;;;;;;;5073793;28;20044;-85
2021/06/21 02:46:19;;;;;;;28.33;19.95;;;;;;;;;;5074733;28;20059;-86
2021/06/21 02:48:45;;;;;;;27.05;19.67;;;;;;;;;;5072832;28;20045;-85
2021/06/21 02:51:16;;;;;;;27.80;18.73;;;;;;;;;;5073881;28;20044;-86
2021/06/21 02:53:57;;;;;;;26.17;18.98;;;;;;;;;;5073793;28;20049;-86
2021/06/21 02:56:29;;;;;;;28.98;19.75;;;;;;;;;;5073735;28;20044;-86
2021/06/21 02:58:59;;;;;;;31.35;21.58;;;;;;;;;;5058104;28;20051;-86
2021/06/21 03:01:26;;;;;;;29.20;20.42;;;;;;;;;;5073832;28;20048;-85
2021/06/21 03:03:54;;;;;;;31.40;22.00;;;;;;;;;;5074286;28;20049;-85
2021/06/21 03:06:23;;;;;;;31.80;20.98;;;;;;;;;;5073345;28;20131;-85
2021/06/21 03:08:50;;;;;;;32.17;21.95;;;;;;;;;;5068699;28;20036;-86
2021/06/21 03:11:17;;;;;;;29.88;21.50;;;;;;;;;;5065603;28;20407;-85
2021/06/21 03:13:54;;;;;;;31.08;22.23;;;;;;;;;;5068124;28;20569;-86
2021/06/21 03:16:22;;;;;;;36.83;22.95;;;;;;;;;;5082023;28;20064;-86
2021/06/21 03:18:49;;;;;;;34.13;21.27;;;;;;;;;;5073022;28;20037;-86
2021/06/21 03:21:18;;;;;;;30.75;22.88;;;;;;;;;;5072389;28;20101;-86
2021/06/21 03:23:49;;;;;;;30.05;21.60;;;;;;;;;;5072630;28;20071;-85
2021/06/21 03:26:16;;;;;;;30.73;20.55;;;;;;;;;;5072770;28;20068;-85
2021/06/21 03:28:42;;;;;;;30.30;20.55;;;;;;;;;;5072659;28;20059;-87
2021/06/21 03:31:09;;;;;;;28.42;19.98;;;;;;;;;;5073347;28;20071;-83
2021/06/21 03:33:36;;;;;;;34.70;21.33;;;;;;;;;;5061533;28;20131;-86
2021/06/21 03:36:03;;;;;;;31.05;20.05;;;;;;;;;;5065851;28;20048;-85
2021/06/21 03:38:30;;;;;;;37.72;21.45;;;;;;;;;;5072337;28;20178;-85
2021/06/21 03:40:57;;;;;;;28.88;19.23;;;;;;;;;;5072519;28;20045;-87
2021/06/21 03:43:24;;;;;;;27.90;18.23;;;;;;;;;;5072847;28;20055;-86
2021/06/21 03:45:52;;;;;;;25.17;18.27;;;;;;;;;;5060733;28;20084;-86
2021/06/21 03:48:19;;;;;;;22.25;17.63;;;;;;;;;;5068487;28;20496;-86
2021/06/21 03:50:45;;;;;;;24.77;16.92;;;;;;;;;;5069857;28;20056;-85
2021/06/21 03:53:12;;;;;;;24.33;17.60;;;;;;;;;;5059657;28;20045;-87
2021/06/21 03:55:38;;;;;;;24.70;16.75;;;;;;;;;;5072400;28;20048;-86
2021/06/21 03:58:05;;;;;;;25.35;15.55;;;;;;;;;;5073233;28;20447;-87
2021/06/21 04:00:32;;;;;;;22.05;16.13;;;;;;;;;;5072394;28;20515;-86
2021/06/21 04:02:58;;;;;;;22.83;16.00;;;;;;;;;;5072334;28;20052;-86
2021/06/21 04:05:25;;;;;;;25.58;15.55;;;;;;;;;;5072292;28;20072;-86
2021/06/21 04:07:52;;;;;;;24.15;15.68;;;;;;;;;;5056563;28;20063;-85
2021/06/21 04:10:20;;;;;;;24.10;15.88;;;;;;;;;;5072972;28;20059;-86
2021/06/21 04:12:47;;;;;;;18.23;16.25;;;;;;;;;;5062847;28;20040;-86
2021/06/21 04:15:14;;;;;;;20.77;15.82;;;;;;;;;;5063567;28;20068;-88
2021/06/21 04:17:41;;;;;;;20.10;16.40;;;;;;;;;;5071990;28;20116;-87
2021/06/21 04:20:13;;;;;;;23.63;15.55;;;;;;;;;;5071901;28;20075;-87
2021/06/21 04:22:40;;;;;;;22.45;15.18;;;;;;;;;;5072040;28;20060;-86
2021/06/21 04:25:08;;;;;;;23.67;16.80;;;;;;;;;;5072681;28;20045;-87
2021/06/21 04:27:34;;;;;;;24.70;15.40;;;;;;;;;;5071910;28;20044;-87
2021/06/21 04:30:00;;;;;;;20.77;16.17;;;;;;;;;;5067002;28;20048;-86
2021/06/21 04:32:26;;;;;;;20.40;15.73;;;;;;;;;;5060887;28;20522;-86
2021/06/21 04:34:53;;;;;;;22.90;15.55;;;;;;;;;;5071999;28;20041;-87
2021/06/21 04:37:19;;;;;;;20.45;15.68;;;;;;;;;;5068669;28;20431;-87
2021/06/21 04:39:45;;;;;;;20.40;15.45;;;;;;;;;;5071812;28;20041;-88
2021/06/21 04:42:12;;;;;;;30.30;16.05;;;;;;;;;;5071776;28;20095;-86
2021/06/21 04:44:39;;;;;;;20.77;15.20;;;;;;;;;;5071576;28;20044;-87
2021/06/21 04:47:05;;;;;;;20.27;14.45;;;;;;;;;;5072139;28;20093;-88
2021/06/21 04:49:32;;;;;;;18.35;15.35;;;;;;;;;;5071901;28;20051;-88
2021/06/21 04:51:58;;;;;;;23.70;14.05;;;;;;;;;;5072722;28;20044;-85
2021/06/21 04:54:24;;;;;;;17.15;13.85;;;;;;;;;;5071518;28;20098;-88
2021/06/21 04:56:51;;;;;;;17.92;13.27;;;;;;;;;;5066678;28;20128;-87
2021/06/21 04:59:17;;;;;;;21.27;13.48;;;;;;;;;;5059336;28;20040;-88
2021/06/21 05:01:44;;;;;;;19.67;14.35;;;;;;;;;;5055525;28;20106;-88
2021/06/21 05:04:10;;;;;;;21.33;12.80;;;;;;;;;;5072401;28;20067;-87
2021/06/21 05:06:37;;;;;;;20.70;13.13;;;;;;;;;;5071514;28;20072;-88
2021/06/21 05:09:04;;;;;;;19.25;12.80;;;;;;;;;;5065982;28;20052;-89
2021/06/21 05:11:31;;;;;;;15.63;12.50;;;;;;;;;;5062505;28;20502;-87
2021/06/21 05:13:57;;;;;;;17.38;11.90;;;;;;;;;;5076180;28;20080;-86
2021/06/21 05:16:24;;;;;;;21.83;12.40;;;;;;;;;;5075920;28;20053;-87
2021/06/21 05:18:50;;;;;;;15.35;11.80;;;;;;;;;;5063674;28;20045;-88
2021/06/21 05:21:17;;;;;;;19.20;12.63;;;;;;;;;;5062961;28;20071;-88
2021/06/21 05:23:43;;;;;;;18.60;13.32;;;;;;;;;;5063867;28;20055;-87
2021/06/21 05:26:09;;;;;;;14.10;11.68;;;;;;;;;;5064217;28;20056;-86
2021/06/21 05:28:36;;;;;;;15.85;11.30;;;;;;;;;;5058168;28;20062;-86
2021/06/21 05:31:02;;;;;;;19.33;11.73;;;;;;;;;;5069778;28;20123;-86
2021/06/21 05:33:28;;;;;;;15.18;10.82;;;;;;;;;;5073973;28;20040;-87
2021/06/21 05:35:55;;;;;;;15.50;10.32;;;;;;;;;;5053297;28;20400;-87
2021/06/21 05:38:21;;;;;;;15.95;11.15;;;;;;;;;;5063301;28;20047;-89
2021/06/21 05:40:47;;;;;;;15.15;10.60;;;;;;;;;;5063971;28;20064;-88
2021/06/21 05:43:14;;;;;;;11.90;9.95;;;;;;;;;;5065631;28;20040;-87
2021/06/21 05:45:40;;;;;;;16.00;11.35;;;;;;;;;;5074706;28;20057;-90
2021/06/21 05:48:07;;;;;;;13.75;9.77;;;;;;;;;;5069516;28;20382;-89
2021/06/21 05:50:33;;;;;;;11.88;10.02;;;;;;;;;;5060342;28;20452;-89
2021/06/21 05:53:00;;;;;;;15.23;10.50;;;;;;;;;;5073713;28;20052;-89
2021/06/21 05:55:26;;;;;;;12.65;9.18;;;;;;;;;;5075602;28;20045;-87
2021/06/21 05:57:55;;;;;;;26.33;10.02;;;;;;;;;;5069916;28;20526;-88
2021/06/21 06:00:22;;;;;;;15.25;9.18;;;;;;;;;;5074773;28;20045;-89
2021/06/21 06:02:48;;;;;;;13.35;8.90;;;;;;;;;;5074421;28;20044;-89
2021/06/21 06:05:16;;;;;;;12.43;9.73;;;;;;;;;;5073353;28;20094;-86
2021/06/21 06:07:42;;;;;;;16.55;9.50;;;;;;;;;;5068743;28;20613;-86
2021/06/21 06:10:08;;;;;;;18.70;9.15;;;;;;;;;;5073364;28;20048;-87
2021/06/21 06:12:35;;;;;;;13.63;9.10;;;;;;;;;;5069032;28;20041;-86
2021/06/21 06:15:02;;;;;;;10.48;8.20;;;;;;;;;;5068637;28;20053;-88
2021/06/21 06:17:28;;;;;;;14.02;7.93;;;;;;;;;;5062865;28;20175;-88
2021/06/21 06:19:55;;;;;;;21.50;8.55;;;;;;;;;;5072824;28;20076;-89
2021/06/21 06:22:21;;;;;;;13.70;8.75;;;;;;;;;;5059841;28;20044;-88
2021/06/21 06:24:48;;;;;;;15.38;7.60;;;;;;;;;;5064218;28;20048;-90
2021/06/21 06:27:14;;;;;;;15.70;7.50;;;;;;;;;;5072297;28;20165;-90
2021/06/21 06:29:40;;;;;;;13.93;7.25;;;;;;;;;;5062839;28;20040;-73
2021/06/21 06:32:07;;;;;;;8.93;7.10;;;;;;;;;;5058802;28;20090;-73
2021/06/21 06:34:34;;;;;;;13.63;6.50;;;;;;;;;;5072855;28;20040;-71
2021/06/21 06:37:00;;;;;;;11.00;6.50;;;;;;;;;;5066240;28;20496;-73
2021/06/21 06:39:27;;;;;;;19.63;8.02;;;;;;;;;;5061883;28;20290;-73
2021/06/21 06:41:53;;;;;;;15.88;6.85;;;;;;;;;;5065195;28;20072;-73
2021/06/21 06:44:20;;;;;;;15.20;5.88;;;;;;;;;;5073034;28;20037;-74
2021/06/21 06:46:47;;;;;;;19.90;5.90;;;;;;;;;;5057402;28;20048;-73
2021/06/21 06:49:13;;;;;;;11.45;6.35;;;;;;;;;;5074476;28;20566;-73
2021/06/21 06:51:42;;;;;;;17.27;5.75;;;;;;;;;;5066974;28;20047;-74
2021/06/21 06:57:01;;;;;;;13.80;5.35;;;;;;;;;;5070030;28;20044;-75
2021/06/21 06:59:27;;;;;;;15.25;5.28;;;;;;;;;;5068063;28;20613;-73
2021/06/21 07:01:54;;;;;;;15.50;5.88;;;;;;;;;;5069859;28;20048;-73
2021/06/21 07:04:20;;;;;;;7.28;4.68;;;;;;;;;;5073205;28;20519;-73
2021/06/21 07:06:46;;;;;;;12.57;5.40;;;;;;;;;;5070716;28;20072;-73
2021/06/21 07:09:13;;;;;;;16.55;6.28;;;;;;;;;;5070161;28;20072;-73
2021/06/21 07:11:40;;;;;;;23.20;6.03;;;;;;;;;;5067514;28;20047;-73
2021/06/21 07:14:06;;;;;;;13.65;5.22;;;;;;;;;;5059180;28;20036;-74
2021/06/21 07:16:34;;;;;;;10.27;4.82;;;;;;;;;;5064003;28;20090;-74
2021/06/21 07:19:00;;;;;;;9.70;4.70;;;;;;;;;;5069524;28;20708;-74
2021/06/21 07:21:26;;;;;;;11.30;4.63;;;;;;;;;;5063425;28;20038;-73
2021/06/21 07:23:53;;;;;;;9.82;4.13;;;;;;;;;;5068970;28;20043;-71
2021/06/21 07:26:19;;;;;;;17.23;4.80;;;;;;;;;;5070842;28;20084;-73
2021/06/21 07:28:46;;;;;;;15.68;3.67;;;;;;;;;;5067666;28;20068;-73
2021/06/21 07:31:12;;;;;;;10.20;3.25;;;;;;;;;;5071137;28;20075;-73
2021/06/21 07:33:39;;;;;;;9.57;3.03;;;;;;;;;;5066953;28;20078;-73
2021/06/21 07:36:05;;;;;;;22.50;4.50;;;;;;;;;;5062971;28;20127;-73
2021/06/21 07:38:32;;;;;;;13.55;3.58;;;;;;;;;;5059344;28;20044;-79
2021/06/21 07:40:58;;;;;;;11.98;3.38;;;;;;;;;;5066230;28;20057;-77
2021/06/21 07:43:24;;;;;;;6.28;2.65;;;;;;;;;;5068824;28;20040;-76
2021/06/21 07:45:51;;;;;;;11.18;2.63;;;;;;;;;;5066596;28;20056;-78
2021/06/21 07:48:17;;;;;;;9.30;2.80;;;;;;;;;;5066833;28;20051;-71
2021/06/21 07:50:44;;;;;;;11.20;2.90;;;;;;;;;;5067414;28;20194;-71
2021/06/21 07:53:10;;;;;;;12.40;3.17;;;;;;;;;;5067148;28;20425;-71
2021/06/21 07:55:37;;;;;;;10.90;3.65;;;;;;;;;;5070622;28;20045;-71
2021/06/21 07:58:04;;;;;;;6.80;2.58;;;;;;;;;;5070174;28;20044;-71
2021/06/21 08:00:32;;;;;;;11.93;3.38;;;;;;;;;;5069963;28;20036;-71
2021/06/21 08:02:59;;;;;;;22.00;3.40;;;;;;;;;;5068739;28;20104;-71
2021/06/21 08:05:26;;;;;;;12.10;3.25;;;;;;;;;;5068760;28;20389;-71
2021/06/21 08:07:53;;;;;;;16.92;3.85;;;;;;;;;;5055896;28;20488;-71
2021/06/21 08:10:20;;;;;;;10.63;2.85;;;;;;;;;;5068236;28;20044;-71
2021/06/21 08:12:46;;;;;;;17.88;2.83;;;;;;;;;;5071413;28;20040;-71
2021/06/21 08:15:13;;;;;;;12.55;2.58;;;;;;;;;;5062019;28;20064;-72
2021/06/21 08:17:39;;;;;;;16.08;2.60;;;;;;;;;;5063677;28;20040;-71
2021/06/21 08:20:07;;;;;;;18.48;2.58;;;;;;;;;;5071347;28;20040;-71
2021/06/21 08:22:33;;;;;;;13.20;3.30;;;;;;;;;;5067324;28;20055;-72
2021/06/21 08:25:00;;;;;;;7.45;2.42;;;;;;;;;;5065373;28;20048;-71
2021/06/21 08:27:26;;;;;;;13.77;2.22;;;;;;;;;;5069311;28;20049;-70
2021/06/21 08:29:53;;;;;;;15.73;3.08;;;;;;;;;;5069699;28;20053;-68
2021/06/21 08:32:19;;;;;;;23.17;4.55;;;;;;;;;;5069281;28;20067;-71
2021/06/21 08:34:45;;;;;;;11.32;2.80;;;;;;;;;;5069643;28;20106;-71
2021/06/21 08:37:12;;;;;;;20.23;3.05;;;;;;;;;;5070388;28;20053;-70
2021/06/21 08:39:38;;;;;;;19.83;3.70;;;;;;;;;;5069719;28;20075;-71
2021/06/21 08:42:07;;;;;;;8.07;2.47;;;;;;;;;;5066462;28;20048;-69
2021/06/21 08:44:37;;;;;;;16.50;3.00;;;;;;;;;;5064999;28;20503;-71
2021/06/21 08:47:04;;;;;;;11.63;2.85;;;;;;;;;;5061771;28;20071;-69
2021/06/21 12:53:57;;;;;;;6.47;1.80;;;;;;;;;;5135457;27;20437;-77
2021/06/21 12:56:26;;;;;;;6.25;1.83;;;;;;;;;;5107661;28;20469;-78
2021/06/21 12:58:53;;;;;;;5.15;1.77;;;;;;;;;;5116412;28;20138;-76
2021/06/21 13:01:22;;;;;;;4.05;1.80;;;;;;;;;;5121537;28;20054;-78
2021/06/21 13:03:49;;;;;;;4.43;1.80;;;;;;;;;;5121890;28;20036;-78
2021/06/21 13:06:28;;;;;;;6.38;1.90;;;;;;;;;;5126559;28;20043;-77
2021/06/21 13:08:59;;;;;;;5.07;1.88;;;;;;;;;;5128702;28;20079;-78
2021/06/21 13:11:25;;;;;;;11.88;2.00;;;;;;;;;;5106176;28;20051;-78
2021/06/21 13:13:51;;;;;;;5.78;1.83;;;;;;;;;;5120700;28;20036;-78
2021/06/21 13:16:22;;;;;;;10.70;1.70;;;;;;;;;;5121653;28;20043;-77
2021/06/21 13:18:53;;;;;;;4.30;1.98;;;;;;;;;;5121117;28;20052;-78
2021/06/21 13:21:39;;;;;;;8.20;2.40;;;;;;;;;;5089953;28;20079;-78
2021/06/21 13:24:06;;;;;;;8.07;2.25;;;;;;;;;;5121393;28;20062;-78
2021/06/21 13:26:34;;;;;;;7.90;1.90;;;;;;;;;;5102897;28;20048;-78
2021/06/21 13:29:16;;;;;;;5.35;1.77;;;;;;;;;;5105003;28;20085;-78
2021/06/21 13:31:43;;;;;;;4.00;2.08;;;;;;;;;;5104882;28;20053;-78
2021/06/21 13:34:09;;;;;;;3.60;1.50;;;;;;;;;;5106067;28;20047;-78
2021/06/21 13:36:54;;;;;;;7.00;1.80;;;;;;;;;;5104904;28;20051;-78
2021/06/21 13:39:21;;;;;;;5.10;2.08;;;;;;;;;;5106690;28;20072;-78
2021/06/21 13:41:57;;;;;;;9.48;2.47;;;;;;;;;;5107333;28;20036;-77
2021/06/21 13:44:23;;;;;;;8.80;2.58;;;;;;;;;;5104889;28;20087;-78
2021/06/21 13:46:50;;;;;;;9.38;1.83;;;;;;;;;;5104226;28;20042;-77
2021/06/21 13:49:16;;;;;;;10.27;1.90;;;;;;;;;;5100324;28;20074;-77
2021/06/21 13:51:56;;;;;;;11.63;1.52;;;;;;;;;;5104447;28;20538;-78
2021/06/21 13:54:27;;;;;;;6.72;1.60;;;;;;;;;;5086208;28;20058;-77
2021/06/21 13:57:08;;;;;;;4.22;1.60;;;;;;;;;;5084418;28;20082;-78
2021/06/21 13:59:47;;;;;;;8.75;1.90;;;;;;;;;;5094019;28;20048;-78
2021/06/21 14:02:33;;;;;;;7.05;2.05;;;;;;;;;;5091142;28;20040;-78
2021/06/21 14:04:59;;;;;;;5.53;1.80;;;;;;;;;;5091330;28;20380;-77
2021/06/21 14:07:26;;;;;;;6.63;2.05;;;;;;;;;;5091010;28;20044;-79
2021/06/21 14:09:53;;;;;;;7.07;2.22;;;;;;;;;;5091089;28;20187;-77
2021/06/21 14:12:19;;;;;;;6.28;2.03;;;;;;;;;;5092713;28;20066;-78
2021/06/21 14:14:46;;;;;;;4.00;1.80;;;;;;;;;;5092934;28;20094;-78
2021/06/21 14:17:12;;;;;;;6.55;2.15;;;;;;;;;;5088223;28;20513;-75
2021/06/21 14:19:39;;;;;;;6.60;1.90;;;;;;;;;;5090780;28;20047;-78
2021/06/21 14:22:05;;;;;;;7.70;1.80;;;;;;;;;;5090521;28;20059;-76
2021/06/21 14:24:31;;;;;;;4.57;1.63;;;;;;;;;;5058409;28;20438;-77
2021/06/21 14:26:58;;;;;;;4.93;2.00;;;;;;;;;;5093949;28;20070;-77
2021/06/21 14:29:24;;;;;;;11.07;1.60;;;;;;;;;;5090086;28;20153;-77
2021/06/21 14:31:51;;;;;;;5.03;2.28;;;;;;;;;;5090462;28;20120;-77
2021/06/21 14:34:17;;;;;;;4.78;1.83;;;;;;;;;;5090393;28;20040;-74
2021/06/21 14:36:46;;;;;;;4.53;1.88;;;;;;;;;;5090356;28;20083;-76
2021/06/21 14:39:12;;;;;;;4.78;1.80;;;;;;;;;;5092420;28;20486;-74
2021/06/21 14:41:38;;;;;;;13.40;1.80;;;;;;;;;;5091141;28;20067;-75
2021/06/21 14:44:05;;;;;;;10.48;2.13;;;;;;;;;;5090256;28;20036;-76
2021/06/21 14:46:32;;;;;;;10.02;2.17;;;;;;;;;;5087825;28;20044;-76
2021/06/21 14:48:59;;;;;;;4.28;1.58;;;;;;;;;;5089769;28;20039;-75
2021/06/21 14:51:26;;;;;;;6.43;2.25;;;;;;;;;;5091199;28;20072;-78
2021/06/21 14:53:53;;;;;;;6.28;1.60;;;;;;;;;;5079206;28;20048;-75
2021/06/21 14:56:19;;;;;;;5.03;1.75;;;;;;;;;;5089159;28;20040;-77
2021/06/21 14:58:47;;;;;;;3.95;1.70;;;;;;;;;;5089941;28;20048;-73
2021/06/21 15:01:13;;;;;;;5.38;1.80;;;;;;;;;;5090037;28;20499;-75
2021/06/21 15:03:39;;;;;;;8.30;1.95;;;;;;;;;;5089963;28;20036;-73
2021/06/21 15:06:11;;;;;;;7.60;1.83;;;;;;;;;;5091675;28;21156;-75
2021/06/21 15:08:38;;;;;;;5.78;1.75;;;;;;;;;;5092418;28;20055;-75
2021/06/21 15:11:04;;;;;;;2.92;1.70;;;;;;;;;;5085838;28;20102;-76
2021/06/21 15:13:31;;;;;;;3.72;1.65;;;;;;;;;;5083385;28;20044;-75
2021/06/21 15:15:58;;;;;;;2.17;1.55;;;;;;;;;;5089173;28;20070;-74
2021/06/21 15:18:24;;;;;;;6.18;1.90;;;;;;;;;;5088814;28;20144;-73
2021/06/21 15:20:50;;;;;;;8.80;2.10;;;;;;;;;;5086862;28;20044;-76
2021/06/21 15:23:17;;;;;;;4.35;1.88;;;;;;;;;;5087694;28;20044;-75
2021/06/21 15:25:44;;;;;;;8.30;1.92;;;;;;;;;;5085094;28;20036;-73
2021/06/21 15:28:10;;;;;;;4.10;1.88;;;;;;;;;;5088360;28;20055;-77
2021/06/21 15:30:37;;;;;;;5.82;1.75;;;;;;;;;;5083854;28;20173;-74
2021/06/21 15:33:04;;;;;;;6.25;1.70;;;;;;;;;;5086778;28;20480;-76
2021/06/21 15:35:31;;;;;;;5.90;2.00;;;;;;;;;;5070491;28;20056;-76
2021/06/21 15:37:58;;;;;;;8.05;1.80;;;;;;;;;;5060306;28;20054;-75
2021/06/21 15:40:26;;;;;;;8.18;2.20;;;;;;;;;;5085802;28;20127;-76
2021/06/21 15:42:53;;;;;;;12.23;2.05;;;;;;;;;;5083490;28;20536;-75
2021/06/21 15:45:24;;;;;;;5.28;1.60;;;;;;;;;;5057106;28;20162;-74
2021/06/21 15:47:50;;;;;;;8.25;1.80;;;;;;;;;;5089438;28;20055;-76
2021/06/21 15:50:18;;;;;;;4.45;1.98;;;;;;;;;;5070547;28;20056;-76
2021/06/21 15:52:45;;;;;;;5.22;1.73;;;;;;;;;;5081783;28;20071;-77
2021/06/21 15:55:13;;;;;;;11.10;1.83;;;;;;;;;;5085301;28;20032;-74
2021/06/21 15:57:41;;;;;;;6.60;1.92;;;;;;;;;;5085739;28;20078;-76
2021/06/21 16:00:07;;;;;;;3.78;2.03;;;;;;;;;;5087931;28;20811;-75
2021/06/21 16:02:34;;;;;;;6.00;1.98;;;;;;;;;;5085198;28;20051;-76
2021/06/21 16:05:01;;;;;;;2.88;1.77;;;;;;;;;;5077113;28;20683;-76
2021/06/21 16:07:29;;;;;;;8.00;2.13;;;;;;;;;;5075760;28;20446;-76
2021/06/21 16:09:56;;;;;;;13.98;1.88;;;;;;;;;;5081485;28;20056;-77
2021/06/21 16:12:22;;;;;;;7.03;2.00;;;;;;;;;;5088919;28;20083;-77
2021/06/21 16:14:50;;;;;;;3.53;1.98;;;;;;;;;;5089928;28;20135;-77
2021/06/21 16:17:17;;;;;;;4.50;1.80;;;;;;;;;;5067955;28;20044;-76
2021/06/21 16:19:46;;;;;;;5.00;1.95;;;;;;;;;;5076830;28;20075;-75
2021/06/21 16:22:12;;;;;;;5.32;2.10;;;;;;;;;;5075434;28;20048;-76
2021/06/21 16:24:39;;;;;;;7.28;2.00;;;;;;;;;;5076972;28;20040;-76
2021/06/21 16:27:06;;;;;;;13.05;2.38;;;;;;;;;;5082134;28;20044;-77
2021/06/21 16:29:33;;;;;;;13.82;2.00;;;;;;;;;;5077492;28;20048;-78
2021/06/21 16:31:59;;;;;;;5.68;1.95;;;;;;;;;;5085315;28;20086;-77
2021/06/21 16:34:26;;;;;;;8.23;2.10;;;;;;;;;;5070764;28;20079;-78
2021/06/21 16:36:52;;;;;;;13.10;2.33;;;;;;;;;;5087600;28;20127;-77
2021/06/21 16:39:18;;;;;;;3.88;1.88;;;;;;;;;;5082995;28;20040;-77
2021/06/21 16:41:45;;;;;;;3.72;1.70;;;;;;;;;;5091474;28;20098;-75
2021/06/21 16:44:11;;;;;;;2.60;1.60;;;;;;;;;;5085683;28;20040;-72
2021/06/21 16:46:38;;;;;;;3.83;2.00;;;;;;;;;;5087539;28;20406;-75
2021/06/21 16:49:04;;;;;;;7.55;1.95;;;;;;;;;;5086459;28;20048;-75
2021/06/21 16:51:31;;;;;;;6.68;2.00;;;;;;;;;;5087194;28;20059;-74
2021/06/21 16:53:57;;;;;;;7.30;2.00;;;;;;;;;;5090655;28;20483;-74
2021/06/21 16:56:24;;;;;;;8.65;2.10;;;;;;;;;;5084252;28;20052;-76
2021/06/21 16:58:52;;;;;;;9.55;2.00;;;;;;;;;;5065631;28;20050;-77
2021/06/21 17:01:18;;;;;;;3.15;1.73;;;;;;;;;;5084891;28;20399;-76
2021/06/21 17:03:45;;;;;;;3.35;1.80;;;;;;;;;;5086328;28;20135;-75
2021/06/21 17:06:11;;;;;;;4.18;1.80;;;;;;;;;;5084741;28;20406;-73
2021/06/21 17:08:37;;;;;;;9.80;2.10;;;;;;;;;;5086789;28;20056;-73
2021/06/21 17:11:04;;;;;;;9.20;1.80;;;;;;;;;;5083002;28;20044;-74
2021/06/21 17:13:30;;;;;;;9.13;2.15;;;;;;;;;;5081405;28;20045;-75
2021/06/21 17:15:57;;;;;;;4.57;2.03;;;;;;;;;;5084044;28;20040;-76
2021/06/21 17:18:23;;;;;;;6.45;2.17;;;;;;;;;;5083607;28;20060;-75
2021/06/21 17:20:50;;;;;;;8.25;1.95;;;;;;;;;;5086320;28;20318;-75
2021/06/21 17:23:16;;;;;;;3.50;1.80;;;;;;;;;;5086588;28;20071;-76
2021/06/21 17:25:43;;;;;;;7.57;1.73;;;;;;;;;;5085254;28;20568;-77
2021/06/21 17:28:11;;;;;;;4.88;1.70;;;;;;;;;;5069092;28;20048;-76
2021/06/21 17:30:38;;;;;;;5.30;1.95;;;;;;;;;;5086660;28;20066;-74
2021/06/21 17:33:04;;;;;;;3.75;2.00;;;;;;;;;;5068627;28;20857;-74
2021/06/21 17:35:31;;;;;;;5.88;2.28;;;;;;;;;;5081190;28;20056;-75
2021/06/21 17:37:58;;;;;;;6.35;1.90;;;;;;;;;;5090226;28;20094;-74
2021/06/21 17:40:26;;;;;;;4.15;1.77;;;;;;;;;;5089015;28;20052;-75
2021/06/21 17:42:52;;;;;;;7.88;2.10;;;;;;;;;;5074089;28;20048;-75
2021/06/21 17:45:19;;;;;;;8.35;2.72;;;;;;;;;;5074745;28;20488;-83
2021/06/21 17:47:46;;;;;;;7.05;3.03;;;;;;;;;;5079839;28;20048;-82
2021/06/21 17:50:13;;;;;;;8.27;2.35;;;;;;;;;;5092271;28;20076;-80
2021/06/21 17:52:40;;;;;;;9.50;2.95;;;;;;;;;;5088866;28;20048;-81
2021/06/21 17:55:11;;;;;;;3.83;2.33;;;;;;;;;;5084955;28;20510;-81
2021/06/21 17:57:45;;;;;;;7.65;2.50;;;;;;;;;;5077231;28;20086;-80
2021/06/21 18:00:16;;;;;;;6.65;3.22;;;;;;;;;;5077990;28;20064;-84
2021/06/21 18:02:47;;;;;;;10.60;2.70;;;;;;;;;;5078649;28;20048;-81
2021/06/21 18:05:14;;;;;;;5.57;2.55;;;;;;;;;;5087044;28;20044;-84
2021/06/21 18:07:41;;;;;;;9.48;3.00;;;;;;;;;;5066669;28;20052;-80
2021/06/21 18:10:09;;;;;;;24.02;4.15;;;;;;;;;;5090301;28;20040;-85
2021/06/21 18:12:35;;;;;;;12.82;3.03;;;;;;;;;;5078641;28;20466;-83
2021/06/21 18:15:02;;;;;;;10.73;2.45;;;;;;;;;;5076765;28;20479;-82
2021/06/21 18:17:28;;;;;;;7.80;2.78;;;;;;;;;;5076869;28;20047;-82
2021/06/21 18:19:54;;;;;;;4.55;2.80;;;;;;;;;;5076495;28;20542;-82
2021/06/21 18:22:21;;;;;;;9.32;3.05;;;;;;;;;;5077124;28;20036;-85
2021/06/21 18:24:47;;;;;;;9.75;2.72;;;;;;;;;;5089720;28;20049;-84
2021/06/21 18:27:14;;;;;;;12.80;3.72;;;;;;;;;;5082422;28;20075;-83
2021/06/21 18:29:40;;;;;;;4.50;2.50;;;;;;;;;;5075766;28;20060;-85
2021/06/21 18:32:10;;;;;;;5.15;2.72;;;;;;;;;;5077385;28;20567;-85
2021/06/21 18:34:38;;;;;;;9.45;3.25;;;;;;;;;;5081868;28;20097;-82
2021/06/21 18:37:11;;;;;;;5.43;3.33;;;;;;;;;;5089605;28;20036;-83
2021/06/21 18:39:39;;;;;;;8.82;2.90;;;;;;;;;;5069675;28;20478;-83